createdAt,value
2022-11-28T00:05:55.355Z,37.71695
2022-11-28T00:20:58.006Z,5.38813
2022-11-28T00:36:00.463Z,0
2022-11-28T00:51:03.181Z,0
2022-11-28T01:06:05.808Z,0
2022-11-28T01:21:08.330Z,0
2022-11-28T01:36:11.092Z,0
2022-11-28T01:51:13.501Z,0
2022-11-28T02:06:15.942Z,0
2022-11-28T02:21:18.325Z,0
2022-11-28T02:36:20.955Z,0
2022-11-28T02:51:23.274Z,0
2022-11-28T03:06:25.512Z,0
2022-11-28T03:21:27.947Z,0
2022-11-28T03:36:30.254Z,0
2022-11-28T03:51:32.531Z,0
2022-11-28T04:06:34.772Z,0
2022-11-28T04:21:37.139Z,0
2022-11-28T04:36:39.328Z,0
2022-11-28T04:51:41.548Z,0
2022-11-28T05:06:44.053Z,0
2022-11-28T05:21:46.396Z,0
2022-11-28T05:36:48.752Z,0
2022-11-28T05:51:51.202Z,0
2022-11-28T06:06:53.645Z,0
2022-11-28T06:21:56.799Z,0
2022-11-28T06:36:59.201Z,0
2022-11-28T06:52:02.034Z,0
2022-11-28T07:07:04.718Z,0
2022-11-28T07:22:07.219Z,0
2022-11-28T07:37:09.740Z,0
2022-11-28T07:52:12.006Z,0
2022-11-28T08:07:14.688Z,0
2022-11-28T08:22:16.979Z,0
2022-11-28T08:37:19.229Z,0
2022-11-28T08:52:21.429Z,0
2022-11-28T09:07:23.762Z,0
2022-11-28T09:22:26.048Z,0
2022-11-28T09:37:28.289Z,0
2022-11-28T09:52:30.665Z,0
2022-11-28T10:07:33.128Z,0
2022-11-28T10:22:35.351Z,0
2022-11-28T10:37:37.622Z,0
2022-11-28T10:52:40.021Z,0
2022-11-28T11:07:42.271Z,0
2022-11-28T11:22:46.157Z,0
2022-11-28T11:37:48.478Z,0
2022-11-28T11:52:50.729Z,0
2022-11-28T12:07:53.293Z,0
2022-11-28T12:22:55.662Z,0
2022-11-28T12:38:10.236Z,0
2022-11-28T12:53:13.784Z,0
2022-11-28T13:08:16.270Z,0
2022-11-28T13:23:18.668Z,0
2022-11-28T13:38:38.956Z,0
2022-11-28T13:53:46.674Z,0
2022-11-28T14:08:50.056Z,0
2022-11-28T14:23:52.482Z,0
2022-11-28T14:38:54.930Z,0
2022-11-28T14:53:57.149Z,2.69407
2022-11-28T15:08:59.396Z,28.73672
2022-11-28T15:24:01.638Z,86.21016
2022-11-28T15:39:03.847Z,258.63046
2022-11-28T15:54:09.474Z,417.58044
2022-11-28T16:09:14.384Z,683.39508
2022-11-28T16:24:16.658Z,1122.52808
2022-11-28T16:39:18.919Z,1427.85571
2022-11-28T16:54:21.157Z,1531.1283
2022-11-28T17:09:23.377Z,1602.07214
2022-11-28T17:24:25.623Z,1777.18652
2022-11-28T17:39:27.811Z,1711.63086
2022-11-28T17:54:29.992Z,1734.08142
2022-11-28T18:09:32.218Z,1577.82544
2022-11-28T18:24:34.691Z,1664.03564
2022-11-28T18:39:37.039Z,1784.37061
2022-11-28T18:54:39.398Z,2043.89917
2022-11-28T19:09:41.969Z,1638.89099
2022-11-28T19:24:44.400Z,2086.1062
2022-11-28T19:39:46.761Z,2018.75452
2022-11-28T19:54:49.142Z,2767.70532
2022-11-28T20:09:51.456Z,3144.87476
2022-11-28T20:24:53.659Z,2643.77808
2022-11-28T20:39:55.963Z,3598.37598
2022-11-28T20:54:58.267Z,3661.23755
2022-11-28T21:10:00.503Z,2839.54712
2022-11-28T21:25:02.892Z,3007.47729
2022-11-28T21:40:05.102Z,3395.42285
2022-11-28T21:55:07.482Z,3541.80054
2022-11-28T22:10:09.706Z,2647.37036
2022-11-28T22:25:11.970Z,1719.71301
2022-11-28T22:40:14.375Z,1081.21912
2022-11-28T22:55:16.602Z,825.28265
2022-11-28T23:10:19.141Z,642.98407
2022-11-28T23:25:21.352Z,493.91235
2022-11-28T23:40:23.696Z,309.81775
2022-11-28T23:55:25.904Z,124.82513
